Πλησιέστερες Αναφορές METAR

 

LGTS - Thessaloniki/Makedonia-Elev 7m
Distance from station: Ν 13km
Ενημερώθηκε: 13/08/2020 17:50
Few Clouds
Few Clouds
 Ανεμος από ΝΝΔ
Ανεμος: ΝΝΔ 17 km/h
Θερμοκρασία: 31°C
Heat Index: 32°C
Σημείο Δρόσου: 18°C
Υγρασία: 46%
Βαρόμετρο: 1014 hPa
Clouds: Few Clouds
Visibility: 10 km
Cloud details: Few Clouds 610 m
2020/08/13 14:50 LGTS 131450Z 20009KT 9999 FEW020 31/18 Q1014 NOSIG
LGAV - Athens/Elef. Venizelos-Elev 94m
Distance from station: ΝΝΑ 312km
Ενημερώθηκε: 13/08/2020 17:50
Αίθριος
Αίθριος
 Ανεμος από ΒΑ
Ανεμος: ΒΑ 26 km/h
Θερμοκρασία: 31°C
Σημείο Δρόσου: 12°C
Υγρασία: 31%
Βαρόμετρο: 1013 hPa
Συνθήκες: Αίθριος
Visibility: greater than 10 km
2020/08/13 14:50 LGAV 131450Z 05014KT CAVOK 31/12 Q1013 NOSIG
 
LGAL - Alexandroupolis-Elev 3m
Distance from station: Α 251km
Ενημερώθηκε: 13/08/2020 17:50
Few Clouds
Few Clouds
 Ανεμος από ΔΝΔ
Ανεμος: ΔΝΔ 17 km/h
Θερμοκρασία: 31°C
Heat Index: 32°C
Σημείο Δρόσου: 18°C
Υγρασία: 46%
Βαρόμετρο: 1013 hPa
Clouds: Few Clouds
Visibility: 10 km
Cloud details: Few Clouds 914 m
2020/08/13 14:50 LGAL 131450Z 25009KT 9999 FEW030 31/18 Q1013
LGKV - Kavala/Crysoupolis-Elev 5m
Distance from station: ΑΒΑ 144km
Ενημερώθηκε: 13/08/2020 17:50
Μερικώς νεφελώδης
Μερικώς νεφελώδης
 Ανεμος από ΔΝΔ
Ανεμος: ΔΝΔ 15 km/h
Θερμοκρασία: 26°C
Σημείο Δρόσου: 20°C
Υγρασία: 70%
Βαρόμετρο: 1013 hPa
Clouds: Μερικώς νεφελώδης
Visibility: 10 km
Cloud details: Few Clouds 914 m
Μερικώς νεφελώδης 2438 m
2020/08/13 14:50 LGKV 131450Z 25008KT 9999 FEW030TCU SCT080 26/20 Q1013 RETS
 
LGSK - Skiathos Island-Elev 15m
Distance from station: ΝΝΑ 168km
Ενημερώθηκε: 13/08/2020 17:50
Few Clouds
Few Clouds
 Ανεμος από ΒΒΑ
Ανεμος: ΒΒΑ 7 km/h
Θερμοκρασία: 28°C
Heat Index: 30°C
Σημείο Δρόσου: 21°C
Υγρασία: 66%
Βαρόμετρο: 1013 hPa
Clouds: Few Clouds
Visibility: 10 km
Cloud details: Few Clouds 610 m
2020/08/13 14:50 LGSK 131450Z 03004KT 9999 FEW020 28/21 Q1013
LGLM - Limnos Island-Elev 5m
Distance from station: ΑΝΑ 210km
Ενημερώθηκε: 13/08/2020 17:50
Αίθριος
Αίθριος
 Ανεμος από ΒΒΔ
Ανεμος: ΒΒΔ 13 km/h
Θερμοκρασία: 31°C
Σημείο Δρόσου: 15°C
Υγρασία: 38%
Βαρόμετρο: 1012 hPa
Συνθήκες: Αίθριος
Visibility: greater than 10 km
2020/08/13 14:50 LGLM 131450Z 34007KT CAVOK 31/15 Q1012
 
LGMT - Mitilini Island-Elev 17m
Distance from station: ΑΝΑ 358km
Ενημερώθηκε: 13/08/2020 17:50
Αίθριος
Αίθριος
 Ανεμος από ΒΔ
Ανεμος: ΒΔ 19 km/h
Θερμοκρασία: 32°C
Heat Index: 33°C
Σημείο Δρόσου: 17°C
Υγρασία: 41%
Βαρόμετρο: 1010 hPa
Συνθήκες: Αίθριος
Visibility: greater than 10 km
2020/08/13 14:50 LGMT 131450Z 32010KT CAVOK 32/17 Q1010
LGSY - Skiros Island-Elev 15m
Distance from station: ΝΑ 227km
Ενημερώθηκε: 13/08/2020 17:50
Αίθριος
Αίθριος
 Ανεμος από ΒΒΔ
Ανεμος: ΒΒΔ 17 km/h
Θερμοκρασία: 29°C
Heat Index: 29°C
Σημείο Δρόσου: 17°C
Υγρασία: 48%
Βαρόμετρο: 1013 hPa
Συνθήκες: Αίθριος
Visibility: greater than 10 km
2020/08/13 14:50 LGSY 131450Z 33009KT CAVOK 29/17 Q1013 BLU
 
LGKZ - Kozani-Elev 628m
Distance from station: ΔΝΔ 102km
Ενημερώθηκε: 13/08/2020 17:50

 Ανεμος από ΝΑ
Ανεμος: ΝΑ 9 km/h
Θερμοκρασία: 29°C
Σημείο Δρόσου: 13°C
Υγρασία: 37%
Βαρόμετρο: 1017 hPa
2020/08/13 14:50 LGKZ 131450Z AUTO 14005KT 090V160 //// // ////// 29/13 Q1017 RE//
LGIO - Ioannina-Elev 476m
Distance from station: ΔΝΔ 209km
Ενημερώθηκε: 13/08/2020 17:50
Few Clouds
Few Clouds
 Ανεμος από ΝΔ
Ανεμος: ΝΔ 9 km/h
Θερμοκρασία: 32°C
Σημείο Δρόσου: 15°C
Υγρασία: 36%
Βαρόμετρο: 1014 hPa
Clouds: Few Clouds
Visibility: 10 km
Cloud details: Few Clouds 1067 m
2020/08/13 14:50 LGIO 131450Z 23005KT 220V320 9999 FEW035 32/15 Q1014
 
LGZA - Zakinthos-Elev 3m
Distance from station: ΝΝΔ 367km
Ενημερώθηκε: 13/08/2020 17:50
Few Clouds
Few Clouds
 Ανεμος από Β
Ανεμος: Β 13 km/h
Θερμοκρασία: 35°C
Σημείο Δρόσου: 17°C
Υγρασία: 34%
Βαρόμετρο: 1012 hPa
Clouds: Few Clouds
Visibility: 10 km
Cloud details: Few Clouds 610 m
2020/08/13 14:50 LGZA 131450Z 35007KT 9999 FEW020 35/17 Q1012
LGKR - Corfu Island-Elev 2m
Distance from station: ΔΝΔ 282km
Ενημερώθηκε: 13/08/2020 17:50
Αίθριος
Αίθριος
 Ανεμος από varies
Ανεμος: varies 0 km/h
Θερμοκρασία: 33°C
Heat Index: 37°C
Σημείο Δρόσου: 22°C
Υγρασία: 52%
Βαρόμετρο: 1012 hPa
Συνθήκες: Αίθριος
Visibility: greater than 10 km
2020/08/13 14:50 LGKR 131450Z /////KT CAVOK 33/22 Q1012 NOSIG
 
LGSO - Syros Island-Elev 72m
Distance from station: ΝΝΑ 397km
Ενημερώθηκε: 13/08/2020 15:50
Μη Ενημερωμένο!

 Ανεμος από Β
Ανεμος: Β 33 km/h
Θερμοκρασία: 30°C
Σημείο Δρόσου: 14°C
Υγρασία: 38%
Βαρόμετρο: 1012 hPa
2020/08/13 12:50 LGSO 131250Z AUTO 36018KT //// // ////// 30/14 Q1012 RE//
LGMK - Mikonos Island-Elev 123m
Distance from station: ΝΝΑ 412km
Ενημερώθηκε: 13/08/2020 17:50
Αίθριος
Αίθριος
 Ανεμος από Β
Ανεμος: Β 33 km/h
Θερμοκρασία: 29°C
Heat Index: 29°C
Σημείο Δρόσου: 17°C
Υγρασία: 48%
Βαρόμετρο: 1010 hPa
Συνθήκες: Αίθριος
Visibility: greater than 10 km
2020/08/13 14:50 LGMK 131450Z 36018KT CAVOK 29/17 Q1010
 
LGSR - Santorini Island-Elev 40m
Distance from station: ΝΝΑ 520km
Ενημερώθηκε: 13/08/2020 17:50
Αίθριος
Αίθριος
 Ανεμος από ΒΒΔ
Ανεμος: ΒΒΔ 44 km/h
Θερμοκρασία: 29°C
Heat Index: 29°C
Σημείο Δρόσου: 18°C
Υγρασία: 51%
Βαρόμετρο: 1010 hPa
Συνθήκες: Αίθριος
Visibility: greater than 10 km
2020/08/13 14:50 LGSR 131450Z 33024KT CAVOK 29/18 Q1010
LGKL - Kalamata-Elev 8m
Distance from station: Ν 405km
Ενημερώθηκε: 13/08/2020 17:50
Few Clouds
Few Clouds
 Ανεμος από ΝΝΑ
Ανεμος: ΝΝΑ 19 km/h
Θερμοκρασία: 33°C
Σημείο Δρόσου: 13°C
Υγρασία: 30%
Βαρόμετρο: 1012 hPa
Clouds: Few Clouds
Visibility: 10 km
Cloud details: Few Clouds 914 m
2020/08/13 14:50 LGKL 131450Z 16010KT 9999 FEW030 33/13 Q1012
 
LGIR - Iraklion/Crete-Elev 5m
Distance from station: ΝΝΑ 622km
Ενημερώθηκε: 13/08/2020 17:50
Αίθριος
Αίθριος
 Ανεμος από ΔΒΔ
Ανεμος: ΔΒΔ 31 km/h
Θερμοκρασία: 30°C
Heat Index: 32°C
Σημείο Δρόσου: 20°C
Υγρασία: 55%
Βαρόμετρο: 1011 hPa
Συνθήκες: Αίθριος
Visibility: greater than 10 km
2020/08/13 14:50 LGIR 131450Z 29017KT CAVOK 30/20 Q1011 NOSIG
LGRP - Rhodes-Elev 5m
Distance from station: ΝΑ 649km
Ενημερώθηκε: 13/08/2020 17:50
Few Clouds
Few Clouds
 Ανεμος από ΔΝΔ
Ανεμος: ΔΝΔ 30 km/h
Θερμοκρασία: 32°C
Heat Index: 34°C
Σημείο Δρόσου: 19°C
Υγρασία: 46%
Βαρόμετρο: 1006 hPa
Clouds: Few Clouds
Visibility: 10 km
Cloud details: Few Clouds 549 m
2020/08/13 14:50 LGRP 131450Z 24016KT 9999 FEW018 32/19 Q1006 NOSIG
 
LWOH - Ohrid/FYROM-Elev 761m
Distance from station: ΔΒΔ 188km
Ενημερώθηκε: 13/08/2020 18:00
Μερικώς νεφελώδης
Μερικώς νεφελώδης
 Ανεμος από ΝΑ
Ανεμος: ΝΑ 6 km/h
Θερμοκρασία: 27°C
Heat Index: 28°C
Σημείο Δρόσου: 17°C
Υγρασία: 54%
Βαρόμετρο: 1017 hPa
Clouds: Μερικώς νεφελώδης
Visibility: 10 km
Cloud details: Μερικώς νεφελώδης 1219 m
2020/08/13 15:00 LWOH 131500Z 14003KT 9999 SCT040 27/17 Q1017
LBSF - Sofia/Bulgaria-Elev 595m
Distance from station: Β 227km
Ενημερώθηκε: 13/08/2020 18:00
Few Clouds
Few Clouds
 Ανεμος από ΒΑ
Ανεμος: ΒΑ 15 km/h
Θερμοκρασία: 28°C
Heat Index: 28°C
Σημείο Δρόσου: 14°C
Υγρασία: 42%
Βαρόμετρο: 1017 hPa
Clouds: Few Clouds
Visibility: 10 km
Cloud details: Few Clouds 1737 m
2020/08/13 15:00 LBSF 131500Z 05008KT 010V080 9999 FEW057 28/14 Q1017 NOSIG
Σημερινά ρεκόρ Μετεωρολογικού Σταθμού
Η Μέγιστη τιμή Βαρόμετρου των 1018.5 hPa ισοφάρισε το ρεκόρ Μήνα που σημειώθηκε στις 11/08/2020